Time;durP1;ratioP1;P1;durP2;ratioP2;P2;SDS_P1;SDS_P2;PMS_P1;PMS_P2;Temp;Humidity;BMP_temperature;BMP_pressure;BME280_temperature;BME280_humidity;BME280_pressure;Samples;Min_cycle;Max_cycle;Signal;HPM_P1;HPM_P2
2022/05/28 00:00:17;;;;;;;26.52;6.85;;;;;;;;;;5093426;28;20044;-73
2022/05/28 00:03:21;;;;;;;23.48;7.68;;;;;;;;;;5093545;28;20036;-73
2022/05/28 00:06:29;;;;;;;19.48;6.78;;;;;;;;;;5093216;28;20036;-72
2022/05/28 00:09:34;;;;;;;33.00;8.23;;;;;;;;;;5092750;28;20044;-73
2022/05/28 00:12:39;;;;;;;23.73;7.72;;;;;;;;;;5093000;28;20035;-71
2022/05/28 00:15:43;;;;;;;26.88;8.40;;;;;;;;;;5093249;28;20040;-73
2022/05/28 00:18:49;;;;;;;19.70;7.70;;;;;;;;;;5093170;28;20053;-72
2022/05/28 00:21:53;;;;;;;26.63;7.80;;;;;;;;;;5093072;28;20036;-72
2022/05/28 00:24:57;;;;;;;29.13;8.27;;;;;;;;;;5093152;28;20397;-72
2022/05/28 00:28:02;;;;;;;18.65;6.72;;;;;;;;;;5092859;28;20064;-73
2022/05/28 00:31:06;;;;;;;19.80;6.32;;;;;;;;;;5093103;28;20039;-71
2022/05/28 00:34:11;;;;;;;26.90;7.45;;;;;;;;;;5092592;28;20051;-72
2022/05/28 00:37:15;;;;;;;27.13;6.85;;;;;;;;;;5092882;28;20056;-72
2022/05/28 00:40:22;;;;;;;24.45;7.30;;;;;;;;;;5092571;28;20028;-72
2022/05/28 00:43:27;;;;;;;19.52;6.63;;;;;;;;;;5092542;28;20520;-72
2022/05/28 00:46:32;;;;;;;17.38;6.65;;;;;;;;;;5092524;28;20032;-72
2022/05/28 00:49:37;;;;;;;17.33;5.88;;;;;;;;;;5092528;28;20032;-73
2022/05/28 00:52:42;;;;;;;20.52;6.45;;;;;;;;;;5092206;28;20209;-74
2022/05/28 00:55:46;;;;;;;18.13;7.43;;;;;;;;;;5091055;28;20044;-73
2022/05/28 00:58:51;;;;;;;35.47;8.48;;;;;;;;;;5092459;28;20393;-72
2022/05/28 01:01:59;;;;;;;32.05;6.82;;;;;;;;;;5092124;28;20219;-72
2022/05/28 01:05:08;;;;;;;23.00;6.53;;;;;;;;;;5092159;28;20032;-72
2022/05/28 01:08:18;;;;;;;28.00;10.55;;;;;;;;;;5091299;28;20056;-72
2022/05/28 01:11:34;;;;;;;42.97;12.67;;;;;;;;;;5092236;28;20503;-72
2022/05/28 01:14:47;;;;;;;23.52;11.65;;;;;;;;;;5091976;28;20518;-72
2022/05/28 01:17:53;;;;;;;29.65;9.60;;;;;;;;;;5092162;28;20505;-72
2022/05/28 01:21:06;;;;;;;33.10;9.38;;;;;;;;;;5091318;28;20514;-72
2022/05/28 01:24:17;;;;;;;23.70;9.73;;;;;;;;;;5091857;28;20043;-71
2022/05/28 01:27:21;;;;;;;;;;;;;;;;;;5092046;28;20048;-73
2022/05/28 01:30:25;;;;;;;30.73;10.68;;;;;;;;;;5091716;28;19930;-72
2022/05/28 01:33:30;;;;;;;34.78;12.13;;;;;;;;;;5091412;28;20043;-72
2022/05/28 01:36:36;;;;;;;29.65;9.85;;;;;;;;;;5091632;28;20498;-72
2022/05/28 01:39:42;;;;;;;21.33;8.45;;;;;;;;;;5091656;28;20040;-71
2022/05/28 01:42:49;;;;;;;16.65;7.63;;;;;;;;;;5091372;28;20032;-72
2022/05/28 01:45:53;;;;;;;28.83;7.88;;;;;;;;;;5091723;28;20079;-73
2022/05/28 01:48:58;;;;;;;24.20;8.50;;;;;;;;;;5091350;28;20046;-72
2022/05/28 01:52:03;;;;;;;21.00;7.75;;;;;;;;;;5091446;28;20047;-73
2022/05/28 01:55:08;;;;;;;20.58;7.88;;;;;;;;;;5091513;28;20036;-72
2022/05/28 01:58:12;;;;;;;28.88;8.65;;;;;;;;;;5091324;28;20403;-72
2022/05/28 02:01:16;;;;;;;29.20;8.48;;;;;;;;;;5091589;28;20043;-72
2022/05/28 02:04:21;;;;;;;28.80;9.10;;;;;;;;;;5091956;28;20044;-71
2022/05/28 02:07:25;;;;;;;23.83;9.30;;;;;;;;;;5090222;28;20411;-72
2022/05/28 02:10:30;;;;;;;28.77;9.48;;;;;;;;;;5091289;28;20244;-72
2022/05/28 02:13:41;;;;;;;21.27;8.05;;;;;;;;;;5090899;28;20032;-72
2022/05/28 02:16:45;;;;;;;29.37;9.87;;;;;;;;;;5091165;28;20052;-72
2022/05/28 02:20:04;;;;;;;22.13;9.40;;;;;;;;;;5091469;28;20419;-72
2022/05/28 02:23:12;;;;;;;39.15;9.63;;;;;;;;;;5091183;28;20366;-72
2022/05/28 02:26:27;;;;;;;33.90;8.57;;;;;;;;;;5090888;28;20028;-72
2022/05/28 02:29:32;;;;;;;31.67;10.00;;;;;;;;;;5090863;28;20043;-72
2022/05/28 02:32:36;;;;;;;34.78;11.07;;;;;;;;;;5089927;28;20395;-73
2022/05/28 02:35:41;;;;;;;28.35;10.50;;;;;;;;;;5090694;28;20039;-72
2022/05/28 02:38:45;;;;;;;31.88;11.00;;;;;;;;;;5091097;28;20043;-73
2022/05/28 02:41:49;;;;;;;20.58;9.80;;;;;;;;;;5090284;28;20058;-72
2022/05/28 02:44:54;;;;;;;38.53;8.82;;;;;;;;;;5091056;28;20050;-72
2022/05/28 02:47:58;;;;;;;21.98;8.00;;;;;;;;;;5090891;28;20051;-71
2022/05/28 02:51:04;;;;;;;22.45;7.57;;;;;;;;;;5090820;28;20032;-72
2022/05/28 02:54:08;;;;;;;21.23;8.95;;;;;;;;;;5090922;28;20036;-72
2022/05/28 02:57:12;;;;;;;27.10;8.55;;;;;;;;;;5090808;28;20492;-72
2022/05/28 03:00:17;;;;;;;20.67;7.38;;;;;;;;;;5090849;28;20039;-73
2022/05/28 03:03:21;;;;;;;23.23;8.10;;;;;;;;;;5090112;28;20028;-73
2022/05/28 03:06:26;;;;;;;21.20;8.02;;;;;;;;;;5090556;28;20504;-71
2022/05/28 03:09:30;;;;;;;22.23;8.70;;;;;;;;;;5090741;28;20055;-71
2022/05/28 03:12:34;;;;;;;27.75;8.98;;;;;;;;;;5089831;28;20032;-72
2022/05/28 03:15:39;;;;;;;26.85;9.75;;;;;;;;;;5090710;28;20044;-73
2022/05/28 03:18:43;;;;;;;27.15;9.93;;;;;;;;;;5092402;28;20040;-72
2022/05/28 03:21:48;;;;;;;26.73;9.98;;;;;;;;;;5094225;28;20036;-73
2022/05/28 03:24:52;;;;;;;25.00;9.20;;;;;;;;;;5094108;28;20036;-72
2022/05/28 03:27:56;;;;;;;29.52;9.02;;;;;;;;;;5094141;28;20048;-72
2022/05/28 03:31:00;;;;;;;23.65;8.70;;;;;;;;;;5093843;28;20032;-73
2022/05/28 03:34:05;;;;;;;27.05;8.93;;;;;;;;;;5094145;28;20053;-72
2022/05/28 03:37:09;;;;;;;29.67;8.82;;;;;;;;;;5094292;28;20495;-72
2022/05/28 03:40:13;;;;;;;31.67;10.30;;;;;;;;;;5094524;28;20044;-72
2022/05/28 03:43:18;;;;;;;29.75;10.65;;;;;;;;;;5093802;28;20055;-72
2022/05/28 03:46:30;;;;;;;30.33;10.32;;;;;;;;;;5093860;28;20522;-71
2022/05/28 03:49:36;;;;;;;25.90;10.73;;;;;;;;;;5093556;28;20431;-72
2022/05/28 03:52:40;;;;;;;23.38;10.25;;;;;;;;;;5093640;28;20051;-72
2022/05/28 03:55:44;;;;;;;28.08;10.20;;;;;;;;;;5093949;28;20074;-73
2022/05/28 03:58:50;;;;;;;33.45;10.60;;;;;;;;;;5093716;28;20055;-73
2022/05/28 04:01:54;;;;;;;31.55;10.05;;;;;;;;;;5093591;28;20384;-74
2022/05/28 04:04:59;;;;;;;34.45;10.63;;;;;;;;;;5093248;28;20040;-73
2022/05/28 04:08:04;;;;;;;34.88;11.45;;;;;;;;;;5093398;28;20039;-72
2022/05/28 04:11:08;;;;;;;28.58;12.23;;;;;;;;;;5093401;28;20035;-72
2022/05/28 04:14:13;;;;;;;30.15;12.43;;;;;;;;;;5092388;28;20391;-76
2022/05/28 04:17:17;;;;;;;39.28;14.57;;;;;;;;;;5093105;28;20042;-72
2022/05/28 04:20:21;;;;;;;35.65;13.05;;;;;;;;;;5093024;28;20047;-73
2022/05/28 04:23:26;;;;;;;29.85;12.80;;;;;;;;;;5092985;28;20114;-71
2022/05/28 04:26:30;;;;;;;33.28;12.00;;;;;;;;;;5092171;28;20123;-72
2022/05/28 04:29:35;;;;;;;27.60;12.45;;;;;;;;;;5091983;28;20058;-72
2022/05/28 04:32:40;;;;;;;36.38;13.45;;;;;;;;;;5092848;28;20055;-72
2022/05/28 04:35:44;;;;;;;31.52;13.77;;;;;;;;;;5093094;28;20392;-74
2022/05/28 04:38:48;;;;;;;60.13;16.27;;;;;;;;;;5092880;28;20043;-73
2022/05/28 04:41:53;;;;;;;36.67;15.27;;;;;;;;;;5091734;28;20060;-73
2022/05/28 04:44:57;;;;;;;31.70;10.93;;;;;;;;;;5092704;28;20047;-72
2022/05/28 04:48:02;;;;;;;35.72;10.95;;;;;;;;;;5092315;28;20058;-73
2022/05/28 04:51:06;;;;;;;35.30;11.40;;;;;;;;;;5092772;28;20043;-72
2022/05/28 04:54:11;;;;;;;36.85;12.30;;;;;;;;;;5091742;28;20047;-73
2022/05/28 04:57:15;;;;;;;29.98;12.18;;;;;;;;;;5092602;28;20107;-72
2022/05/28 05:00:21;;;;;;;44.05;12.68;;;;;;;;;;5092302;28;20498;-73
2022/05/28 05:03:26;;;;;;;30.45;12.60;;;;;;;;;;5092099;28;20400;-72
2022/05/28 05:06:30;;;;;;;42.45;12.20;;;;;;;;;;5092163;28;20109;-73
2022/05/28 05:09:34;;;;;;;31.63;11.32;;;;;;;;;;5091967;28;20059;-74
2022/05/28 05:12:39;;;;;;;31.25;11.05;;;;;;;;;;5092324;28;20394;-72
2022/05/28 05:15:43;;;;;;;28.90;11.93;;;;;;;;;;5092107;28;20498;-73
2022/05/28 05:18:48;;;;;;;32.00;10.98;;;;;;;;;;5092272;28;20055;-72
2022/05/28 05:21:54;;;;;;;29.40;12.20;;;;;;;;;;5092032;28;20047;-71
2022/05/28 05:24:58;;;;;;;34.92;11.88;;;;;;;;;;5091949;28;20407;-73
2022/05/28 05:28:03;;;;;;;38.97;12.82;;;;;;;;;;5091025;28;20043;-73
2022/05/28 05:31:07;;;;;;;47.63;12.48;;;;;;;;;;5091590;28;20051;-73
2022/05/28 05:34:11;;;;;;;33.22;11.45;;;;;;;;;;5091791;28;20427;-72
2022/05/28 05:37:16;;;;;;;32.97;11.23;;;;;;;;;;5091742;28;20035;-72
2022/05/28 05:40:20;;;;;;;37.28;11.52;;;;;;;;;;5091071;28;20510;-71
2022/05/28 05:43:25;;;;;;;42.45;12.23;;;;;;;;;;5091446;28;20051;-72
2022/05/28 05:46:29;;;;;;;51.17;13.82;;;;;;;;;;5091326;28;20043;-72
2022/05/28 05:49:34;;;;;;;40.90;14.45;;;;;;;;;;5091409;28;20051;-72
2022/05/28 05:52:39;;;;;;;36.78;13.02;;;;;;;;;;5091463;28;20043;-73
2022/05/28 05:55:44;;;;;;;44.83;13.00;;;;;;;;;;5091292;28;20043;-72
2022/05/28 05:58:48;;;;;;;45.90;14.65;;;;;;;;;;5091171;28;20048;-72
2022/05/28 06:01:53;;;;;;;40.80;14.73;;;;;;;;;;5091474;28;20076;-72
2022/05/28 06:04:58;;;;;;;41.97;15.05;;;;;;;;;;5091339;28;20400;-73
2022/05/28 06:08:02;;;;;;;58.33;15.77;;;;;;;;;;5091084;28;20050;-71
2022/05/28 06:11:06;;;;;;;42.38;14.32;;;;;;;;;;5090544;28;20054;-72
2022/05/28 06:14:10;;;;;;;45.03;15.38;;;;;;;;;;5091191;28;20051;-72
2022/05/28 06:17:14;;;;;;;42.30;15.50;;;;;;;;;;5091113;28;20043;-73
2022/05/28 06:20:19;;;;;;;39.45;14.82;;;;;;;;;;5091163;28;20051;-73
2022/05/28 06:23:23;;;;;;;50.08;16.20;;;;;;;;;;5091225;28;20124;-71
2022/05/28 06:26:28;;;;;;;41.10;15.45;;;;;;;;;;5090756;28;20047;-72
2022/05/28 06:29:33;;;;;;;44.10;12.63;;;;;;;;;;5090778;28;20059;-71
2022/05/28 06:32:37;;;;;;;42.95;10.35;;;;;;;;;;5091140;28;20384;-71
2022/05/28 06:35:42;;;;;;;40.53;9.43;;;;;;;;;;5091019;28;20050;-72
2022/05/28 06:38:46;;;;;;;34.22;8.63;;;;;;;;;;5091230;28;20055;-73
2022/05/28 06:41:50;;;;;;;24.50;8.23;;;;;;;;;;5090792;28;20036;-73
2022/05/28 06:44:59;;;;;;;34.67;8.57;;;;;;;;;;5090039;28;20063;-70
2022/05/28 06:48:03;;;;;;;33.47;7.53;;;;;;;;;;5090739;28;20029;-72
2022/05/28 06:51:07;;;;;;;28.05;7.55;;;;;;;;;;5090837;28;20044;-72
2022/05/28 06:54:12;;;;;;;33.92;7.57;;;;;;;;;;5093787;28;20040;-71
2022/05/28 06:57:16;;;;;;;37.85;7.93;;;;;;;;;;5094537;28;20036;-72
2022/05/28 07:00:20;;;;;;;30.88;7.55;;;;;;;;;;5094613;28;20067;-74
2022/05/28 07:03:26;;;;;;;32.47;7.68;;;;;;;;;;5094341;28;20364;-69
2022/05/28 07:06:31;;;;;;;37.75;6.68;;;;;;;;;;5094273;28;20036;-74
2022/05/28 07:09:36;;;;;;;35.17;6.78;;;;;;;;;;5094408;28;20048;-73
2022/05/28 07:12:40;;;;;;;29.48;7.20;;;;;;;;;;5093431;28;20490;-73
2022/05/28 07:15:45;;;;;;;33.00;7.20;;;;;;;;;;5094345;28;20043;-72
2022/05/28 07:18:49;;;;;;;24.95;8.07;;;;;;;;;;5094255;28;20047;-74
2022/05/28 07:21:53;;;;;;;22.30;6.65;;;;;;;;;;5093950;28;20059;-73
2022/05/28 07:24:57;;;;;;;27.95;8.10;;;;;;;;;;5094319;28;20490;-73
2022/05/28 07:28:24;;;;;;;35.45;6.90;;;;;;;;;;5094167;28;20036;-73
2022/05/28 07:31:26;;;;;;;28.30;6.70;;;;;;;;;;5093983;28;20040;-73
2022/05/28 07:34:31;;;;;;;32.15;8.68;;;;;;;;;;5093887;28;20043;-73
2022/05/28 07:37:35;;;;;;;35.10;7.53;;;;;;;;;;5094046;28;20039;-73
2022/05/28 07:40:39;;;;;;;32.08;8.27;;;;;;;;;;5093895;28;20045;-73
2022/05/28 07:43:44;;;;;;;34.00;7.30;;;;;;;;;;5092405;28;20048;-72
2022/05/28 07:46:48;;;;;;;36.95;7.43;;;;;;;;;;5093570;28;20032;-73
2022/05/28 07:49:54;;;;;;;106.38;12.32;;;;;;;;;;5093571;28;20071;-73
2022/05/28 07:52:59;;;;;;;171.93;14.18;;;;;;;;;;5093367;28;20051;-72
2022/05/28 07:56:05;;;;;;;35.13;7.72;;;;;;;;;;5093558;28;20039;-74
2022/05/28 07:59:09;;;;;;;28.85;7.80;;;;;;;;;;5093263;28;20054;-73
2022/05/28 08:02:13;;;;;;;46.13;8.82;;;;;;;;;;5093169;28;20036;-73
2022/05/28 08:05:18;;;;;;;39.80;7.88;;;;;;;;;;5093224;28;20032;-73
2022/05/28 08:08:23;;;;;;;35.30;8.63;;;;;;;;;;5092243;28;20044;-73
2022/05/28 08:11:27;;;;;;;36.58;8.88;;;;;;;;;;5093366;28;20048;-75
2022/05/28 08:14:32;;;;;;;42.38;9.23;;;;;;;;;;5092943;28;20047;-73
2022/05/28 08:17:36;;;;;;;32.92;7.40;;;;;;;;;;5093263;28;20518;-73
2022/05/28 08:24:03;;;;;;;31.45;8.20;;;;;;;;;;5092889;28;20400;-72
2022/05/28 08:27:07;;;;;;;60.33;10.85;;;;;;;;;;5091920;28;20040;-72
2022/05/28 08:30:12;;;;;;;43.67;9.00;;;;;;;;;;5092813;28;20236;-73
2022/05/28 08:33:17;;;;;;;28.33;8.00;;;;;;;;;;5092661;28;20064;-72
2022/05/28 08:36:22;;;;;;;26.40;8.07;;;;;;;;;;5092730;28;20032;-72
2022/05/28 08:39:26;;;;;;;43.05;8.15;;;;;;;;;;5092802;28;20032;-73
2022/05/28 08:42:31;;;;;;;26.80;6.40;;;;;;;;;;5092383;28;20416;-74
2022/05/28 08:45:36;;;;;;;24.90;7.55;;;;;;;;;;5092139;28;20047;-74
2022/05/28 08:48:40;;;;;;;17.30;6.10;;;;;;;;;;5091379;28;20035;-74
2022/05/28 08:51:50;;;;;;;27.88;6.50;;;;;;;;;;5092386;28;20036;-75
2022/05/28 08:54:57;;;;;;;18.40;5.73;;;;;;;;;;5092237;28;20306;-73
2022/05/28 08:58:06;;;;;;;26.63;5.47;;;;;;;;;;5092477;28;20039;-75
2022/05/28 09:01:13;;;;;;;38.60;5.30;;;;;;;;;;5092326;28;20043;-73
2022/05/28 09:04:21;;;;;;;18.27;4.10;;;;;;;;;;5091325;28;20051;-75
2022/05/28 09:07:25;;;;;;;16.90;4.65;;;;;;;;;;5092070;28;20036;-74
2022/05/28 09:10:33;;;;;;;27.55;4.68;;;;;;;;;;5092067;28;20049;-73
2022/05/28 09:13:45;;;;;;;27.73;6.30;;;;;;;;;;5091857;28;20043;-74
2022/05/28 09:16:51;;;;;;;12.65;3.30;;;;;;;;;;5091514;28;20032;-73
2022/05/28 09:19:57;;;;;;;16.65;4.20;;;;;;;;;;5092022;28;20032;-75
2022/05/28 09:23:01;;;;;;;21.30;4.00;;;;;;;;;;5091631;28;20502;-74
2022/05/28 09:26:06;;;;;;;25.95;4.57;;;;;;;;;;5092110;28;20032;-74
2022/05/28 09:29:34;;;;;;;24.33;4.15;;;;;;;;;;5091726;28;20048;-72
2022/05/28 09:32:38;;;;;;;31.77;5.07;;;;;;;;;;5091529;28;20036;-76
2022/05/28 09:35:51;;;;;;;37.55;7.15;;;;;;;;;;5091938;28;20400;-74
2022/05/28 09:39:01;;;;;;;32.03;6.28;;;;;;;;;;5091599;28;20040;-73
2022/05/28 09:42:06;;;;;;;;;;;;;;;;;;5091904;28;20492;-74
2022/05/28 09:45:21;;;;;;;25.58;4.30;;;;;;;;;;5091873;28;20018;-74
2022/05/28 09:48:27;;;;;;;24.20;5.00;;;;;;;;;;5091487;28;20040;-74
2022/05/28 09:51:33;;;;;;;26.35;4.13;;;;;;;;;;5091576;28;20542;-73
2022/05/28 09:54:38;;;;;;;18.35;4.10;;;;;;;;;;5091580;28;20050;-75
2022/05/28 09:57:59;;;;;;;15.95;4.13;;;;;;;;;;5091310;28;20051;-73
2022/05/28 10:01:08;;;;;;;24.20;5.20;;;;;;;;;;5091370;28;20040;-74
2022/05/28 10:04:30;;;;;;;30.05;7.18;;;;;;;;;;5091163;28;20047;-73
2022/05/28 10:07:36;;;;;;;22.08;4.43;;;;;;;;;;5091351;28;20045;-73
2022/05/28 10:10:40;;;;;;;15.77;3.65;;;;;;;;;;5091075;28;20407;-74
2022/05/28 10:13:49;;;;;;;20.38;4.25;;;;;;;;;;5091420;28;20032;-74
2022/05/28 10:16:54;;;;;;;25.63;4.07;;;;;;;;;;5091180;28;20289;-75
2022/05/28 10:20:00;;;;;;;26.13;5.07;;;;;;;;;;5091444;28;20040;-74
2022/05/28 10:23:11;;;;;;;15.15;4.60;;;;;;;;;;5090874;28;20036;-74
2022/05/28 10:26:18;;;;;;;28.30;5.88;;;;;;;;;;5090928;28;20032;-77
2022/05/28 10:29:38;;;;;;;26.15;4.50;;;;;;;;;;5094194;28;20048;-75
2022/05/28 10:32:48;;;;;;;17.52;4.20;;;;;;;;;;5094001;28;20535;-77
2022/05/28 10:35:52;;;;;;;13.95;4.22;;;;;;;;;;5094259;28;20043;-76
2022/05/28 10:39:09;;;;;;;26.00;4.95;;;;;;;;;;5094919;28;20036;-74
2022/05/28 10:42:14;;;;;;;24.48;4.28;;;;;;;;;;5095090;28;20039;-75
2022/05/28 10:45:19;;;;;;;25.85;5.25;;;;;;;;;;5093955;28;20055;-73
2022/05/28 10:48:43;;;;;;;12.30;4.28;;;;;;;;;;5094727;28;20077;-77
2022/05/28 10:51:51;;;;;;;16.30;4.00;;;;;;;;;;5094572;28;20391;-74
2022/05/28 10:54:59;;;;;;;19.77;5.75;;;;;;;;;;5094542;28;20111;-74
2022/05/28 10:58:22;;;;;;;19.15;4.45;;;;;;;;;;5094938;28;20387;-75
2022/05/28 11:01:50;;;;;;;21.40;4.85;;;;;;;;;;5094938;28;20053;-74
2022/05/28 11:05:13;;;;;;;20.40;4.50;;;;;;;;;;5094756;28;20036;-74
2022/05/28 11:08:17;;;;;;;10.93;4.32;;;;;;;;;;5094567;28;20040;-74
2022/05/28 11:11:40;;;;;;;13.63;4.22;;;;;;;;;;5094271;28;20373;-74
2022/05/28 11:15:03;;;;;;;21.88;4.50;;;;;;;;;;5094751;28;20044;-75
2022/05/28 11:18:26;;;;;;;16.77;4.40;;;;;;;;;;5094330;28;20047;-74
2022/05/28 11:21:31;;;;;;;15.30;4.30;;;;;;;;;;5094033;28;20499;-74
2022/05/28 11:24:50;;;;;;;15.48;4.28;;;;;;;;;;5094392;28;20036;-77
2022/05/28 11:28:15;;;;;;;16.15;4.05;;;;;;;;;;5094027;28;20044;-74
2022/05/28 11:31:29;;;;;;;10.93;3.70;;;;;;;;;;5093275;28;20043;-73
2022/05/28 11:34:47;;;;;;;14.90;4.50;;;;;;;;;;5093809;28;20043;-73
2022/05/28 11:37:53;;;;;;;26.35;7.38;;;;;;;;;;5093972;28;20040;-75
2022/05/28 11:41:01;;;;;;;11.57;3.72;;;;;;;;;;5093857;28;20258;-74
2022/05/28 11:44:05;;;;;;;17.00;3.55;;;;;;;;;;5093749;28;20040;-74
2022/05/28 11:47:19;;;;;;;21.08;5.00;;;;;;;;;;5094147;28;20036;-74
2022/05/28 11:53:56;;;;;;;16.77;3.88;;;;;;;;;;5093690;28;20483;-74
2022/05/28 11:57:03;;;;;;;23.80;4.22;;;;;;;;;;5093551;28;20044;-74
2022/05/28 12:00:10;;;;;;;18.48;4.00;;;;;;;;;;5093676;28;20035;-74
2022/05/28 12:03:17;;;;;;;14.75;3.78;;;;;;;;;;5093375;28;20040;-74
2022/05/28 12:06:30;;;;;;;8.52;3.50;;;;;;;;;;5093309;28;20051;-75
2022/05/28 12:09:36;;;;;;;12.57;3.40;;;;;;;;;;5093151;28;20044;-75
2022/05/28 12:13:00;;;;;;;10.15;3.22;;;;;;;;;;5093215;28;20036;-74
2022/05/28 12:16:25;;;;;;;13.32;4.15;;;;;;;;;;5093372;28;20400;-74
2022/05/28 12:19:29;;;;;;;12.63;3.70;;;;;;;;;;5093347;28;20040;-75
2022/05/28 12:22:35;;;;;;;11.68;3.40;;;;;;;;;;5092943;28;20039;-74
2022/05/28 12:25:40;;;;;;;18.95;3.20;;;;;;;;;;5093129;28;20514;-75
2022/05/28 12:28:49;;;;;;;16.13;3.65;;;;;;;;;;5093402;28;20043;-74
2022/05/28 12:31:53;;;;;;;19.60;4.07;;;;;;;;;;5092863;28;20032;-74
2022/05/28 12:35:02;;;;;;;14.02;3.60;;;;;;;;;;5092819;28;20046;-74
2022/05/28 12:38:09;;;;;;;18.30;4.07;;;;;;;;;;5093068;28;20047;-74
2022/05/28 12:41:21;;;;;;;20.95;3.67;;;;;;;;;;5092935;28;20391;-74
2022/05/28 12:44:26;;;;;;;11.85;3.38;;;;;;;;;;5092510;28;20047;-74
2022/05/28 12:47:31;;;;;;;15.20;3.47;;;;;;;;;;5092623;28;20043;-74
2022/05/28 12:50:59;;;;;;;22.55;5.03;;;;;;;;;;5091791;28;20047;-74
2022/05/28 12:54:04;;;;;;;20.15;3.83;;;;;;;;;;5092790;28;20475;-74
2022/05/28 12:57:29;;;;;;;19.77;4.18;;;;;;;;;;5092450;28;20036;-74
2022/05/28 13:00:42;;;;;;;15.90;3.78;;;;;;;;;;5092473;28;20040;-75
2022/05/28 13:03:46;;;;;;;20.00;3.95;;;;;;;;;;5092178;28;20500;-74
2022/05/28 13:06:58;;;;;;;23.15;4.60;;;;;;;;;;5092046;28;20035;-77
2022/05/28 13:10:06;;;;;;;29.48;4.22;;;;;;;;;;5091118;28;20048;-73
2022/05/28 13:13:28;;;;;;;21.75;3.58;;;;;;;;;;5092077;28;20036;-75
2022/05/28 13:16:33;;;;;;;21.00;4.05;;;;;;;;;;5092521;28;20040;-73
2022/05/28 13:19:49;;;;;;;28.65;4.40;;;;;;;;;;5091926;28;20032;-75
2022/05/28 13:23:12;;;;;;;18.05;4.35;;;;;;;;;;5091893;28;20323;-75
2022/05/28 13:26:20;;;;;;;16.83;4.47;;;;;;;;;;5091836;28;20039;-75
2022/05/28 13:29:48;;;;;;;33.17;5.93;;;;;;;;;;5091914;28;20051;-74
2022/05/28 13:33:03;;;;;;;17.75;4.40;;;;;;;;;;5091765;28;20040;-74
2022/05/28 13:36:11;;;;;;;19.20;3.35;;;;;;;;;;5091669;28;20505;-74
2022/05/28 13:39:15;;;;;;;15.38;4.63;;;;;;;;;;5091795;28;20388;-74
2022/05/28 13:42:19;;;;;;;18.85;3.90;;;;;;;;;;5091365;28;20028;-75
2022/05/28 13:45:25;;;;;;;15.15;3.50;;;;;;;;;;5091739;28;20600;-74
2022/05/28 13:48:30;;;;;;;19.40;3.58;;;;;;;;;;5091577;28;20032;-78
2022/05/28 13:51:35;;;;;;;19.75;4.60;;;;;;;;;;5091710;28;20036;-76
2022/05/28 13:54:41;;;;;;;35.15;5.18;;;;;;;;;;5091387;28;20052;-73
2022/05/28 13:57:47;;;;;;;13.63;3.45;;;;;;;;;;5091391;28;20047;-74
2022/05/28 14:01:02;;;;;;;18.70;3.63;;;;;;;;;;5090493;28;20512;-76
2022/05/28 14:04:19;;;;;;;20.35;3.63;;;;;;;;;;5091375;28;20039;-74
2022/05/28 14:07:24;;;;;;;33.55;4.32;;;;;;;;;;5091383;28;20043;-73
2022/05/28 14:10:30;;;;;;;31.77;4.20;;;;;;;;;;5091164;28;20052;-75
2022/05/28 14:13:38;;;;;;;16.92;3.65;;;;;;;;;;5090936;28;20032;-75
2022/05/28 14:16:53;;;;;;;17.05;3.30;;;;;;;;;;5091535;28;20045;-74
2022/05/28 14:19:58;;;;;;;24.80;4.28;;;;;;;;;;5090908;28;20043;-74
2022/05/28 14:23:04;;;;;;;20.08;4.47;;;;;;;;;;5090958;28;20365;-75
2022/05/28 14:26:11;;;;;;;19.00;4.07;;;;;;;;;;5090197;28;20044;-74
2022/05/28 14:29:15;;;;;;;27.00;5.55;;;;;;;;;;5091286;28;20399;-76
2022/05/28 14:32:23;;;;;;;26.90;4.10;;;;;;;;;;5090798;28;20042;-76
2022/05/28 14:35:42;;;;;;;26.17;5.00;;;;;;;;;;5091043;28;20046;-73
2022/05/28 14:38:46;;;;;;;25.05;4.40;;;;;;;;;;5090893;28;20044;-74
2022/05/28 14:42:03;;;;;;;24.35;4.85;;;;;;;;;;5090716;28;20032;-74
2022/05/28 14:45:09;;;;;;;23.70;5.35;;;;;;;;;;5090673;28;20057;-76
2022/05/28 14:48:26;;;;;;;25.02;5.20;;;;;;;;;;5090551;28;20412;-75
2022/05/28 14:51:34;;;;;;;21.27;5.95;;;;;;;;;;5090763;28;20055;-76
2022/05/28 14:55:05;;;;;;;27.05;5.90;;;;;;;;;;5090606;28;20028;-74
2022/05/28 14:58:20;;;;;;;18.35;4.85;;;;;;;;;;5090927;28;20347;-74
2022/05/28 15:01:33;;;;;;;17.15;5.15;;;;;;;;;;5090744;28;20040;-74
2022/05/28 15:04:37;;;;;;;23.35;4.50;;;;;;;;;;5090721;28;20054;-74
2022/05/28 15:07:57;;;;;;;23.60;5.35;;;;;;;;;;5090452;28;20040;-76
2022/05/28 15:11:03;;;;;;;28.57;4.33;;;;;;;;;;5090594;28;20519;-75
2022/05/28 15:14:11;;;;;;;22.35;4.10;;;;;;;;;;5091486;28;20262;-75
2022/05/28 15:17:16;;;;;;;23.92;3.92;;;;;;;;;;5094419;28;20040;-74
2022/05/28 15:20:20;;;;;;;16.88;3.97;;;;;;;;;;5094274;28;20495;-76
2022/05/28 15:23:25;;;;;;;23.80;5.10;;;;;;;;;;5094086;28;20059;-74
2022/05/28 15:26:29;;;;;;;24.15;5.22;;;;;;;;;;5093904;28;20032;-73
2022/05/28 15:29:33;;;;;;;18.67;4.38;;;;;;;;;;5094036;28;20048;-76
2022/05/28 15:32:40;;;;;;;16.63;4.25;;;;;;;;;;5093600;28;20028;-75
2022/05/28 15:39:07;;;;;;;24.67;4.90;;;;;;;;;;5093867;28;20047;-74
2022/05/28 15:42:12;;;;;;;32.00;5.03;;;;;;;;;;5093470;28;20044;-74
2022/05/28 15:45:18;;;;;;;16.85;4.40;;;;;;;;;;5093625;28;20053;-73
2022/05/28 15:48:22;;;;;;;19.73;3.97;;;;;;;;;;5093526;28;20052;-75
2022/05/28 15:51:26;;;;;;;21.35;4.15;;;;;;;;;;5093408;28;20188;-75
2022/05/28 15:54:31;;;;;;;19.83;4.43;;;;;;;;;;5093534;28;20028;-76
2022/05/28 15:57:39;;;;;;;13.85;4.32;;;;;;;;;;5093357;28;20043;-75
2022/05/28 16:00:43;;;;;;;14.75;4.20;;;;;;;;;;5092640;28;20036;-74
2022/05/28 16:03:48;;;;;;;19.85;4.80;;;;;;;;;;5092966;28;20119;-74
2022/05/28 16:06:53;;;;;;;22.08;4.13;;;;;;;;;;5093498;28;20036;-75
2022/05/28 16:09:57;;;;;;;19.05;4.60;;;;;;;;;;5092865;28;20044;-74
2022/05/28 16:13:01;;;;;;;25.05;4.72;;;;;;;;;;5093055;28;20036;-75
2022/05/28 16:16:07;;;;;;;28.52;5.43;;;;;;;;;;5092854;28;20043;-74
2022/05/28 16:19:11;;;;;;;18.67;5.32;;;;;;;;;;5093222;28;20043;-76
2022/05/28 16:22:15;;;;;;;18.25;4.68;;;;;;;;;;5093115;28;20060;-75
2022/05/28 16:25:19;;;;;;;19.05;4.93;;;;;;;;;;5092046;28;20044;-75
2022/05/28 16:28:24;;;;;;;22.00;4.50;;;;;;;;;;5092940;28;20400;-74
2022/05/28 16:31:28;;;;;;;17.42;4.88;;;;;;;;;;5092938;28;20067;-75
2022/05/28 16:34:33;;;;;;;19.10;4.70;;;;;;;;;;5092521;28;20031;-75
2022/05/28 16:37:37;;;;;;;41.40;5.63;;;;;;;;;;5092551;28;20043;-74
2022/05/28 16:40:41;;;;;;;22.25;4.80;;;;;;;;;;5092729;28;20024;-74
2022/05/28 16:43:46;;;;;;;24.90;6.43;;;;;;;;;;5092328;28;20044;-75
2022/05/28 16:46:51;;;;;;;24.60;6.47;;;;;;;;;;5091272;28;20036;-74
2022/05/28 16:49:55;;;;;;;20.00;5.10;;;;;;;;;;5090289;28;20049;-75
2022/05/28 16:53:00;;;;;;;21.33;6.60;;;;;;;;;;5091635;28;20432;-74
2022/05/28 16:56:04;;;;;;;18.10;4.78;;;;;;;;;;5092189;28;20040;-74
2022/05/28 16:59:10;;;;;;;25.35;5.40;;;;;;;;;;5092334;28;20524;-75
2022/05/28 17:02:15;;;;;;;35.22;6.10;;;;;;;;;;5092090;28;20032;-74
2022/05/28 17:05:19;;;;;;;62.78;8.80;;;;;;;;;;5091183;28;20039;-75
2022/05/28 17:08:23;;;;;;;19.92;4.93;;;;;;;;;;5091993;28;20040;-74
2022/05/28 17:11:29;;;;;;;29.85;6.25;;;;;;;;;;5091837;28;20411;-73
2022/05/28 17:14:33;;;;;;;25.60;8.40;;;;;;;;;;5092168;28;20402;-75
2022/05/28 17:17:38;;;;;;;34.88;7.45;;;;;;;;;;5091212;28;20044;-75
2022/05/28 17:20:44;;;;;;;35.25;7.13;;;;;;;;;;5091756;28;20040;-73
2022/05/28 17:23:48;;;;;;;34.50;8.15;;;;;;;;;;5091579;28;20404;-73
2022/05/28 17:26:58;;;;;;;25.67;6.10;;;;;;;;;;5091700;28;20046;-75
2022/05/28 17:30:03;;;;;;;27.15;6.28;;;;;;;;;;5091275;28;20099;-75
2022/05/28 17:33:08;;;;;;;24.38;5.82;;;;;;;;;;5091473;28;20384;-73
2022/05/28 17:36:13;;;;;;;29.02;6.40;;;;;;;;;;5091490;28;20071;-75
2022/05/28 17:39:17;;;;;;;26.15;6.68;;;;;;;;;;5090634;28;20404;-74
2022/05/28 17:42:22;;;;;;;35.28;6.70;;;;;;;;;;5091181;28;20036;-74
2022/05/28 17:45:26;;;;;;;27.98;6.03;;;;;;;;;;5090284;28;20051;-74
2022/05/28 17:48:31;;;;;;;12.75;3.83;;;;;;;;;;5091318;28;20499;-73
2022/05/28 17:51:36;;;;;;;23.05;5.57;;;;;;;;;;5091374;28;20040;-73
2022/05/28 17:54:40;;;;;;;19.33;6.03;;;;;;;;;;5078880;28;20193;-76
2022/05/28 17:57:48;;;;;;;27.08;5.63;;;;;;;;;;5091039;28;20407;-74
2022/05/28 18:00:52;;;;;;;30.13;7.93;;;;;;;;;;5091352;28;20036;-74
2022/05/28 18:03:56;;;;;;;23.52;5.38;;;;;;;;;;5090997;28;20036;-74
2022/05/28 18:07:01;;;;;;;24.42;5.22;;;;;;;;;;5090710;28;20032;-74
2022/05/28 18:10:05;;;;;;;20.25;5.00;;;;;;;;;;5090804;28;20051;-74
2022/05/28 18:13:09;;;;;;;20.33;5.10;;;;;;;;;;5090683;28;20404;-74
2022/05/28 18:16:20;;;;;;;19.35;5.20;;;;;;;;;;5090817;28;20040;-74
2022/05/28 18:19:29;;;;;;;16.90;5.07;;;;;;;;;;5090127;28;20053;-74
2022/05/28 18:22:33;;;;;;;17.05;4.88;;;;;;;;;;5090373;28;20047;-73
2022/05/28 18:25:45;;;;;;;20.98;5.90;;;;;;;;;;5089783;28;20036;-74
2022/05/28 18:28:49;;;;;;;25.77;6.80;;;;;;;;;;5091127;28;20135;-74
2022/05/28 18:31:54;;;;;;;20.02;5.28;;;;;;;;;;5090714;28;20040;-74